If you wish to contribute or participate in the discussions about articles you are invited to join SKYbrary as a registered user

 Actions

Batna Airport

From SKYbrary Wiki

DABT
Airport
ICAO: DABT – IATA: BLJ
Summary
Name Batna Airport
Region Africa
Territory Algeria DZ.gif
Location , Batna
Serving Batna
Elevation 822.046 m
2,697 ft
2,697 ft822.046 m
Type medium airport
Coordinates 35° 45' 7.58" N, 6° 18' 30.92" E
Runways
Designator Length Width Surface ROPS
5/23 3000 m9,842.52 ft
45 m147.638 ft
ASP yes/yes


METAR
Observation DABT 230200Z 32005KT 8000 -RA SCT020 BKN023 06/05 Q1020
Station Batna
Date/Time 23 March 2019 02:00:00
Wind direction 320°
Wind speed 05 kts
Lowest cloud amount scattered clouds
Temperature 6°C
Dew point 5°C
Humidity 93%
QNH 1020 hPa
Weather condition n/a